createdAt,value
2018-09-02T00:01:39.832Z,93761.78
2018-09-02T00:04:08.183Z,93759.88
2018-09-02T00:06:36.155Z,93764.66
2018-09-02T00:09:05.351Z,93767.02
2018-09-02T00:11:33.344Z,93768.33
2018-09-02T00:14:01.441Z,93764.89
2018-09-02T00:16:29.572Z,93760.36
2018-09-02T00:18:57.685Z,93768.81
2018-09-02T00:21:25.719Z,93766.80
2018-09-02T00:23:53.697Z,93773.12
2018-09-02T00:26:21.651Z,93768.59
2018-09-02T00:28:49.853Z,93766.42
2018-09-02T00:31:17.769Z,93774.17
2018-09-02T00:33:45.710Z,93778.58
2018-09-02T00:36:13.821Z,93774.87
2018-09-02T00:38:41.821Z,93776.67
2018-09-02T00:41:09.781Z,93778.21
2018-09-02T00:43:37.737Z,93779.18
2018-09-02T00:46:06.123Z,93777.98
2018-09-02T00:48:34.222Z,93780.27
2018-09-02T00:51:02.286Z,93774.54
2018-09-02T00:53:30.393Z,93773.34
2018-09-02T00:55:58.380Z,93779.29
2018-09-02T00:58:26.558Z,93781.30
2018-09-02T01:00:54.521Z,93780.26
2018-09-02T01:03:22.528Z,93780.26
2018-09-02T01:05:51.215Z,93780.97
2018-09-02T01:08:19.255Z,93781.07
2018-09-02T01:10:48.073Z,93787.95
2018-09-02T01:13:16.003Z,93790.10
2018-09-02T01:15:44.329Z,93787.36
2018-09-02T01:18:13.551Z,93787.81
2018-09-02T01:20:41.767Z,93788.52
2018-09-02T01:23:09.916Z,93784.97
2018-09-02T01:25:38.621Z,93787.34
2018-09-02T01:28:06.977Z,93777.58
2018-09-02T01:30:35.013Z,93781.69
2018-09-02T01:33:03.154Z,93772.91
2018-09-02T01:35:34.315Z,93775.26
2018-09-02T01:38:04.667Z,93775.72
2018-09-02T01:40:33.620Z,93774.78
2018-09-02T01:43:01.727Z,93768.56
2018-09-02T01:45:29.981Z,93771.17
2018-09-02T01:47:58.080Z,93770.34
2018-09-02T01:50:26.175Z,93765.11
2018-09-02T01:52:54.250Z,93758.31
2018-09-02T01:55:22.438Z,93761.64
2018-09-02T01:57:50.589Z,93764.27
2018-09-02T02:00:18.851Z,93768.05
2018-09-02T02:02:47.675Z,93771.00
2018-09-02T02:05:15.743Z,93777.91
2018-09-02T02:07:43.759Z,93776.22
2018-09-02T02:10:12.012Z,93773.00
2018-09-02T02:12:40.215Z,93772.66
2018-09-02T02:15:08.445Z,93773.45
2018-09-02T02:17:37.093Z,93774.05
2018-09-02T02:20:05.288Z,93773.44
2018-09-02T02:22:33.868Z,93779.86
2018-09-02T02:25:02.279Z,93779.46
2018-09-02T02:27:30.527Z,93777.68
2018-09-02T02:29:58.970Z,93779.09
2018-09-02T02:32:27.020Z,93775.25
2018-09-02T02:34:55.342Z,93778.80
2018-09-02T02:37:23.482Z,93778.48
2018-09-02T02:39:51.659Z,93776.20
2018-09-02T02:42:19.758Z,93779.06
2018-09-02T02:44:47.888Z,93780.98
2018-09-02T02:47:15.990Z,93785.12
2018-09-02T02:49:44.221Z,93781.60
2018-09-02T02:52:12.382Z,93783.81
2018-09-02T02:54:40.485Z,93787.01
2018-09-02T02:57:08.602Z,93788.19
2018-09-02T02:59:36.901Z,93788.21
2018-09-02T03:02:05.101Z,93786.63
2018-09-02T03:04:33.207Z,93785.09
2018-09-02T03:07:01.225Z,93782.95
2018-09-02T03:09:29.436Z,93778.77
2018-09-02T03:11:57.616Z,93786.57
2018-09-02T03:14:25.666Z,93783.69
2018-09-02T03:16:53.780Z,93788.70
2018-09-02T03:19:22.078Z,93790.22
2018-09-02T03:21:50.312Z,93792.21
2018-09-02T03:24:18.417Z,93799.94
2018-09-02T03:26:46.588Z,93797.53
2018-09-02T03:29:14.924Z,93802.58
2018-09-02T03:31:43.262Z,93813.03
2018-09-02T03:34:11.698Z,93813.43
2018-09-02T03:36:40.048Z,93815.31
2018-09-02T03:39:08.182Z,93815.72
2018-09-02T03:41:36.458Z,93818.53
2018-09-02T03:44:04.822Z,93810.84
2018-09-02T03:46:32.892Z,93804.90
2018-09-02T03:49:01.040Z,93804.49
2018-09-02T03:51:29.184Z,93803.83
2018-09-02T03:53:57.737Z,93800.95
2018-09-02T03:56:25.873Z,93800.40
2018-09-02T03:58:54.351Z,93806.44
2018-09-02T04:01:22.479Z,93809.54
2018-09-02T04:03:50.591Z,93810.67
2018-09-02T04:06:18.634Z,93811.02
2018-09-02T04:08:46.700Z,93810.82
2018-09-02T04:11:14.779Z,93818.70
2018-09-02T04:13:43.023Z,93815.96
2018-09-02T04:16:11.138Z,93817.72
2018-09-02T04:18:39.247Z,93822.75
2018-09-02T04:21:07.330Z,93826.94
2018-09-02T04:23:35.416Z,93824.19
2018-09-02T04:26:03.912Z,93818.20
2018-09-02T04:28:32.158Z,93815.77
2018-09-02T04:31:00.464Z,93817.17
2018-09-02T04:33:29.044Z,93823.69
2018-09-02T04:35:57.372Z,93827.41
2018-09-02T04:38:25.622Z,93836.62
2018-09-02T04:40:53.811Z,93838.34
2018-09-02T04:43:22.273Z,93840.08
2018-09-02T04:45:50.663Z,93840.54
2018-09-02T04:48:18.951Z,93841.16
2018-09-02T04:50:47.080Z,93850.31
2018-09-02T04:53:15.276Z,93840.70
2018-09-02T04:55:43.619Z,93837.50
2018-09-02T04:58:11.784Z,93838.50
2018-09-02T05:00:39.980Z,93840.73
2018-09-02T05:03:08.305Z,93837.27
2018-09-02T05:05:36.639Z,93836.13
2018-09-02T05:08:05.108Z,93834.50
2018-09-02T05:10:33.399Z,93843.98
2018-09-02T05:13:01.772Z,93844.28
2018-09-02T05:15:29.902Z,93841.07
2018-09-02T05:17:58.401Z,93842.91
2018-09-02T05:20:26.684Z,93841.64
2018-09-02T05:22:54.921Z,93839.91
2018-09-02T05:25:23.018Z,93840.05
2018-09-02T05:27:51.118Z,93845.02
2018-09-02T05:30:19.645Z,93844.03
2018-09-02T05:32:48.046Z,93847.16
2018-09-02T05:35:16.252Z,93843.30
2018-09-02T05:37:44.384Z,93842.73
2018-09-02T05:40:12.637Z,93843.19
2018-09-02T05:42:40.647Z,93844.38
2018-09-02T05:45:08.815Z,93839.77
2018-09-02T05:47:37.014Z,93845.11
2018-09-02T05:50:05.761Z,93840.26
2018-09-02T05:52:33.997Z,93846.38
2018-09-02T05:55:02.542Z,93846.41
2018-09-02T05:57:30.918Z,93852.58
2018-09-02T05:59:59.271Z,93856.45
2018-09-02T06:02:27.602Z,93850.87
2018-09-02T06:04:55.712Z,93857.80
2018-09-02T06:07:23.811Z,93859.83
2018-09-02T06:09:52.243Z,93857.03
2018-09-02T06:12:20.405Z,93859.18
2018-09-02T06:14:48.546Z,93859.61
2018-09-02T06:17:16.913Z,93860.79
2018-09-02T06:19:48.147Z,93863.00
2018-09-02T06:22:16.235Z,93863.77
2018-09-02T06:24:45.230Z,93867.05
2018-09-02T06:27:13.524Z,93859.43
2018-09-02T06:29:42.918Z,93860.80
2018-09-02T06:32:11.075Z,93865.49
2018-09-02T06:34:39.224Z,93846.95
2018-09-02T06:37:07.286Z,93851.89
2018-09-02T06:39:40.347Z,93847.34
2018-09-02T06:42:09.117Z,93849.84
2018-09-02T06:44:38.002Z,93857.29
2018-09-02T06:47:07.475Z,93860.89
2018-09-02T06:49:36.200Z,93859.23
2018-09-02T06:52:05.394Z,93857.18
2018-09-02T06:54:33.941Z,93865.34
2018-09-02T06:57:02.690Z,93868.04
2018-09-02T06:59:42.716Z,93863.92
2018-09-02T07:02:11.603Z,93868.84
2018-09-02T07:04:40.829Z,93870.23
2018-09-02T07:07:14.951Z,93869.73
2018-09-02T07:09:46.036Z,93870.28
2018-09-02T07:12:14.689Z,93869.11
2018-09-02T07:14:46.483Z,93870.75
2018-09-02T07:17:15.525Z,93867.63
2018-09-02T07:19:45.164Z,93868.16
2018-09-02T07:22:14.265Z,93868.13
2018-09-02T07:24:43.111Z,93867.95
2018-09-02T07:27:11.749Z,93867.09
2018-09-02T07:29:40.615Z,93867.64
2018-09-02T07:32:09.291Z,93864.77
2018-09-02T07:34:38.116Z,93866.69
2018-09-02T07:37:15.546Z,93862.97
2018-09-02T07:39:44.483Z,93865.53
2018-09-02T07:42:14.346Z,93875.36
2018-09-02T07:44:43.110Z,93864.99
2018-09-02T07:47:11.575Z,93869.32
2018-09-02T07:49:41.069Z,93863.19
2018-09-02T07:52:09.385Z,93871.56
2018-09-02T07:54:38.132Z,93866.97
2018-09-02T07:57:06.463Z,93859.63
2018-09-02T07:59:36.043Z,93860.14
2018-09-02T08:02:04.449Z,93855.66
2018-09-02T08:04:33.347Z,93856.80
2018-09-02T08:07:02.078Z,93853.34
2018-09-02T08:09:30.867Z,93851.94
2018-09-02T08:11:59.500Z,93850.86
2018-09-02T08:14:28.029Z,93849.67
2018-09-02T08:16:56.482Z,93846.43
2018-09-02T08:19:25.708Z,93843.92
2018-09-02T08:21:55.992Z,93844.75
2018-09-02T08:24:25.029Z,93839.42
2018-09-02T08:26:53.595Z,93849.33
2018-09-02T08:29:25.610Z,93846.22
2018-09-02T08:31:54.090Z,93848.18
2018-09-02T08:34:22.315Z,93842.72
2018-09-02T08:36:52.784Z,93846.55
2018-09-02T08:39:21.100Z,93842.88
2018-09-02T08:41:49.359Z,93844.91
2018-09-02T08:44:17.775Z,93840.67
2018-09-02T08:46:46.132Z,93837.63
2018-09-02T08:49:14.430Z,93837.27
2018-09-02T08:51:42.679Z,93840.45
2018-09-02T08:54:10.853Z,93832.67
2018-09-02T08:56:39.288Z,93834.30
2018-09-02T08:59:07.512Z,93829.19
2018-09-02T09:01:35.846Z,93828.38
2018-09-02T09:04:04.084Z,93826.52
2018-09-02T09:06:32.358Z,93822.88
2018-09-02T09:09:00.787Z,93820.70
2018-09-02T09:11:29.057Z,93824.00
2018-09-02T09:13:57.829Z,93812.17
2018-09-02T09:16:26.550Z,93817.51
2018-09-02T09:18:55.826Z,93817.47
2018-09-02T09:21:26.660Z,93818.31
2018-09-02T09:23:55.534Z,93819.14
2018-09-02T09:26:23.981Z,93814.27
2018-09-02T09:28:52.402Z,93811.50
2018-09-02T09:31:20.797Z,93808.20
2018-09-02T09:33:49.054Z,93808.45
2018-09-02T09:36:20.640Z,93816.22
2018-09-02T09:38:49.690Z,93810.53
2018-09-02T09:41:18.106Z,93801.45
2018-09-02T09:43:46.235Z,93806.38
2018-09-02T09:46:15.496Z,93814.05
2018-09-02T09:48:44.073Z,93810.35
2018-09-02T09:51:14.237Z,93808.17
2018-09-02T09:53:42.757Z,93803.01
2018-09-02T09:56:11.847Z,93801.45
2018-09-02T09:58:40.139Z,93805.31
2018-09-02T10:01:15.512Z,93795.36
2018-09-02T10:03:43.743Z,93799.48
2018-09-02T10:06:11.933Z,93796.87
2018-09-02T10:08:40.196Z,93785.44
2018-09-02T10:11:10.682Z,93787.07
2018-09-02T10:13:38.828Z,93782.72
2018-09-02T10:16:07.274Z,93785.72
2018-09-02T10:18:36.664Z,93772.44
2018-09-02T10:21:05.607Z,93779.77
2018-09-02T10:23:33.789Z,93781.39
2018-09-02T10:26:02.058Z,93772.33
2018-09-02T10:28:30.210Z,93767.48
2018-09-02T10:30:58.553Z,93770.20
2018-09-02T10:33:26.944Z,93764.33
2018-09-02T10:35:55.104Z,93768.92
2018-09-02T10:38:23.281Z,93772.25
2018-09-02T10:40:51.463Z,93758.31
2018-09-02T10:43:20.552Z,93757.86
2018-09-02T10:45:48.805Z,93754.61
2018-09-02T10:48:17.143Z,93750.24
2018-09-02T10:50:51.530Z,93747.53
2018-09-02T10:53:19.793Z,93747.02
2018-09-02T10:55:47.969Z,93745.97
2018-09-02T10:58:16.549Z,93749.17
2018-09-02T11:00:44.969Z,93741.82
2018-09-02T11:03:13.569Z,93745.99
2018-09-02T11:05:41.751Z,93744.86
2018-09-02T11:08:09.995Z,93733.22
2018-09-02T11:10:38.398Z,93738.28
2018-09-02T11:13:06.899Z,93737.22
2018-09-02T11:15:35.360Z,93749.82
2018-09-02T11:18:04.700Z,93736.61
2018-09-02T11:20:33.328Z,93732.61
2018-09-02T11:23:01.624Z,93729.84
2018-09-02T11:25:30.036Z,93741.09
2018-09-02T11:27:59.304Z,93728.94
2018-09-02T11:30:27.889Z,93730.31
2018-09-02T11:32:56.325Z,93727.14
2018-09-02T11:35:24.940Z,93730.31
2018-09-02T11:37:53.240Z,93721.86
2018-09-02T11:40:26.996Z,93718.44
2018-09-02T11:42:55.270Z,93716.47
2018-09-02T11:45:23.536Z,93712.56
2018-09-02T11:47:52.232Z,93710.77
2018-09-02T11:50:20.533Z,93717.73
2018-09-02T11:52:49.735Z,93713.05
2018-09-02T11:55:18.894Z,93713.84
2018-09-02T11:57:47.412Z,93709.77
2018-09-02T12:00:15.951Z,93705.75
2018-09-02T12:02:44.485Z,93700.39
2018-09-02T12:05:13.113Z,93706.58
2018-09-02T12:07:41.332Z,93699.09
2018-09-02T12:10:10.058Z,93702.27
2018-09-02T12:12:38.507Z,93702.20
2018-09-02T12:15:07.058Z,93706.92
2018-09-02T12:17:35.982Z,93706.41
2018-09-02T12:20:08.298Z,93698.32
2018-09-02T12:22:36.566Z,93700.80
2018-09-02T12:25:05.073Z,93702.59
2018-09-02T12:27:33.364Z,93695.38
2018-09-02T12:30:01.913Z,93696.67
2018-09-02T12:32:30.299Z,93684.12
2018-09-02T12:34:59.112Z,93685.42
2018-09-02T12:37:27.367Z,93680.67
2018-09-02T12:39:55.691Z,93689.32
2018-09-02T12:42:23.954Z,93687.70
2018-09-02T12:44:52.308Z,93686.97
2018-09-02T12:47:20.448Z,93683.27
2018-09-02T12:49:52.077Z,93690.82
2018-09-02T12:52:22.242Z,93689.36
2018-09-02T12:54:51.019Z,93690.82
2018-09-02T12:57:19.325Z,93692.19
2018-09-02T12:59:52.045Z,93673.12
2018-09-02T13:02:20.531Z,93677.19
2018-09-02T13:04:48.662Z,93672.23
2018-09-02T13:07:16.855Z,93679.25
2018-09-02T13:09:45.377Z,93679.62
2018-09-02T13:12:15.403Z,93668.86
2018-09-02T13:14:43.751Z,93670.31
2018-09-02T13:17:11.997Z,93655.75
2018-09-02T13:19:40.098Z,93656.64
2018-09-02T13:22:10.278Z,93660.37
2018-09-02T13:24:38.640Z,93657.38
2018-09-02T13:27:06.911Z,93654.57
2018-09-02T13:29:36.889Z,93662.02
2018-09-02T13:32:05.252Z,93652.53
2018-09-02T13:34:34.727Z,93647.38
2018-09-02T13:37:03.002Z,93659.92
2018-09-02T13:39:34.568Z,93653.78
2018-09-02T13:42:03.148Z,93652.45
2018-09-02T13:44:33.660Z,93644.81
2018-09-02T13:47:02.216Z,93650.89
2018-09-02T13:49:30.386Z,93647.20
2018-09-02T13:51:58.777Z,93648.22
2018-09-02T13:54:26.947Z,93638.82
2018-09-02T13:56:54.993Z,93648.02
2018-09-02T13:59:23.222Z,93644.37
2018-09-02T14:01:51.564Z,93641.00
2018-09-02T14:04:19.852Z,93646.35
2018-09-02T14:06:48.031Z,93653.78
2018-09-02T14:09:16.452Z,93647.09
2018-09-02T14:11:44.845Z,93643.61
2018-09-02T14:14:13.126Z,93650.59
2018-09-02T14:16:41.291Z,93652.23
2018-09-02T14:19:09.632Z,93647.83
2018-09-02T14:21:37.917Z,93654.72
2018-09-02T14:24:06.988Z,93638.66
2018-09-02T14:26:35.330Z,93642.66
2018-09-02T14:29:03.812Z,93644.11
2018-09-02T14:31:32.204Z,93639.88
2018-09-02T14:34:00.464Z,93642.73
2018-09-02T14:36:28.762Z,93646.67
2018-09-02T14:38:57.084Z,93644.28
2018-09-02T14:41:25.433Z,93638.22
2018-09-02T14:43:54.398Z,93646.53
2018-09-02T14:46:22.599Z,93625.13
2018-09-02T14:48:50.942Z,93616.51
2018-09-02T14:51:19.364Z,93634.41
2018-09-02T14:53:47.589Z,93622.13
2018-09-02T14:56:15.837Z,93628.00
2018-09-02T14:58:43.996Z,93623.70
2018-09-02T15:01:12.221Z,93620.28
2018-09-02T15:03:40.358Z,93615.66
2018-09-02T15:06:08.589Z,93613.91
2018-09-02T15:08:36.713Z,93614.39
2018-09-02T15:11:04.983Z,93616.05
2018-09-02T15:13:34.072Z,93613.87
2018-09-02T15:16:02.359Z,93610.36
2018-09-02T15:18:30.720Z,93608.72
2018-09-02T15:20:59.057Z,93599.37
2018-09-02T15:23:27.238Z,93609.90
2018-09-02T15:25:55.444Z,93606.90
2018-09-02T15:28:23.841Z,93607.42
2018-09-02T15:30:52.059Z,93599.36
2018-09-02T15:33:20.133Z,93608.20
2018-09-02T15:35:48.506Z,93605.72
2018-09-02T15:38:16.824Z,93605.48
2018-09-02T15:40:45.131Z,93591.69
2018-09-02T15:43:13.323Z,93586.92
2018-09-02T15:45:41.750Z,93587.05
2018-09-02T15:48:09.970Z,93587.97
2018-09-02T15:50:38.260Z,93592.39
2018-09-02T15:53:06.645Z,93588.80
2018-09-02T15:55:34.726Z,93594.30
2018-09-02T15:58:02.937Z,93587.98
2018-09-02T16:00:31.215Z,93588.64
2018-09-02T16:02:59.462Z,93581.89
2018-09-02T16:05:29.705Z,93584.02
2018-09-02T16:07:57.927Z,93583.84
2018-09-02T16:10:26.145Z,93583.26
2018-09-02T16:12:54.520Z,93580.27
2018-09-02T16:15:22.950Z,93593.71
2018-09-02T16:17:52.285Z,93580.75
2018-09-02T16:20:20.718Z,93585.41
2018-09-02T16:22:50.972Z,93582.53
2018-09-02T16:25:23.372Z,93576.51
2018-09-02T16:27:51.642Z,93584.20
2018-09-02T16:30:21.821Z,93587.84
2018-09-02T16:32:50.195Z,93590.20
2018-09-02T16:35:18.444Z,93584.95
2018-09-02T16:37:46.697Z,93583.28
2018-09-02T16:40:14.789Z,93581.86
2018-09-02T16:42:43.030Z,93582.22
2018-09-02T16:45:11.380Z,93579.62
2018-09-02T16:47:39.697Z,93579.88
2018-09-02T16:50:08.124Z,93586.36
2018-09-02T16:52:36.361Z,93584.66
2018-09-02T16:55:04.767Z,93582.52
2018-09-02T16:57:34.470Z,93588.70
2018-09-02T17:00:04.097Z,93579.88
2018-09-02T17:02:32.342Z,93583.05
2018-09-02T17:05:06.112Z,93581.41
2018-09-02T17:07:35.055Z,93583.39
2018-09-02T17:10:04.872Z,93580.21
2018-09-02T17:12:33.594Z,93588.15
2018-09-02T17:17:29.475Z,93586.74
2018-09-02T17:19:58.940Z,93592.63
2018-09-02T17:22:27.269Z,93591.79
2018-09-02T17:24:56.016Z,93589.75
2018-09-02T17:27:24.620Z,93584.59
2018-09-02T17:29:53.151Z,93592.91
2018-09-02T17:32:23.046Z,93596.72
2018-09-02T17:34:51.489Z,93592.80
2018-09-02T17:37:19.800Z,93597.42
2018-09-02T17:39:48.076Z,93604.38
2018-09-02T17:42:16.445Z,93600.23
2018-09-02T17:44:44.651Z,93602.70
2018-09-02T17:47:12.892Z,93608.48
2018-09-02T17:49:41.036Z,93615.78
2018-09-02T17:52:09.377Z,93608.69
2018-09-02T17:54:37.904Z,93608.52
2018-09-02T17:57:06.074Z,93613.11
2018-09-02T17:59:34.308Z,93607.48
2018-09-02T18:02:03.006Z,93610.03
2018-09-02T18:04:31.350Z,93609.45
2018-09-02T18:06:59.628Z,93610.41
2018-09-02T18:09:27.850Z,93615.09
2018-09-02T18:11:56.050Z,93618.03
2018-09-02T18:14:24.259Z,93620.19
2018-09-02T18:16:52.545Z,93619.75
2018-09-02T18:19:20.910Z,93620.59
2018-09-02T18:21:49.209Z,93616.83
2018-09-02T18:24:17.417Z,93617.58
2018-09-02T18:26:45.713Z,93626.30
2018-09-02T18:29:13.968Z,93625.77
2018-09-02T18:31:42.231Z,93626.12
2018-09-02T18:34:10.858Z,93627.34
2018-09-02T18:36:40.519Z,93625.22
2018-09-02T18:39:12.933Z,93630.91
2018-09-02T18:41:41.607Z,93626.39
2018-09-02T18:44:10.046Z,93625.23
2018-09-02T18:46:40.626Z,93624.72
2018-09-02T18:49:09.994Z,93629.63
2018-09-02T18:51:38.486Z,93627.86
2018-09-02T18:54:07.124Z,93624.75
2018-09-02T18:56:35.711Z,93623.19
2018-09-02T18:59:05.361Z,93621.05
2018-09-02T19:01:35.197Z,93626.03
2018-09-02T19:04:08.540Z,93625.25
2018-09-02T19:06:37.582Z,93628.44
2018-09-02T19:09:07.535Z,93628.77
2018-09-02T19:11:35.704Z,93628.73
2018-09-02T19:14:05.212Z,93625.42
2018-09-02T19:16:33.563Z,93637.40
2018-09-02T19:19:02.063Z,93640.94
2018-09-02T19:21:30.368Z,93633.91
2018-09-02T19:23:58.728Z,93632.88
2018-09-02T19:26:26.978Z,93639.47
2018-09-02T19:28:55.221Z,93632.48
2018-09-02T19:31:23.506Z,93630.44
2018-09-02T19:33:51.873Z,93636.64
2018-09-02T19:36:20.256Z,93637.91
2018-09-02T19:38:48.764Z,93635.88
2018-09-02T19:41:17.405Z,93636.25
2018-09-02T19:43:45.806Z,93635.70
2018-09-02T19:46:14.030Z,93642.43
2018-09-02T19:48:42.536Z,93641.51
2018-09-02T19:51:10.654Z,93651.63
2018-09-02T19:53:38.865Z,93651.36
2018-09-02T19:56:06.941Z,93654.23
2018-09-02T19:58:34.992Z,93647.84
2018-09-02T20:01:03.400Z,93650.75
2018-09-02T20:03:31.571Z,93655.22
2018-09-02T20:05:59.876Z,93650.81
2018-09-02T20:08:28.105Z,93649.03
2018-09-02T20:10:56.336Z,93642.80
2018-09-02T20:13:24.417Z,93641.87
2018-09-02T20:15:52.733Z,93651.62
2018-09-02T20:18:21.169Z,93649.42
2018-09-02T20:20:49.720Z,93642.09
2018-09-02T20:23:18.065Z,93640.90
2018-09-02T20:25:46.358Z,93640.06
2018-09-02T20:28:14.548Z,93639.31
2018-09-02T20:30:42.789Z,93642.57
2018-09-02T20:33:11.053Z,93645.41
2018-09-02T20:35:39.440Z,93644.66
2018-09-02T20:38:07.609Z,93631.91
2018-09-02T20:40:35.720Z,93636.31
2018-09-02T20:43:03.848Z,93632.11
2018-09-02T20:45:32.089Z,93630.59
2018-09-02T20:48:00.322Z,93633.42
2018-09-02T20:50:28.543Z,93633.98
2018-09-02T20:52:56.819Z,93630.93
2018-09-02T20:55:26.080Z,93631.75
2018-09-02T20:57:54.401Z,93631.32
2018-09-02T21:00:22.677Z,93619.61
2018-09-02T21:02:50.892Z,93627.11
2018-09-02T21:05:19.083Z,93618.67
2018-09-02T21:07:47.185Z,93621.72
2018-09-02T21:10:15.294Z,93629.55
2018-09-02T21:12:43.454Z,93629.05
2018-09-02T21:15:11.694Z,93630.63
2018-09-02T21:17:39.861Z,93631.50
2018-09-02T21:20:08.147Z,93634.42
2018-09-02T21:22:36.184Z,93630.81
2018-09-02T21:25:04.385Z,93624.72
2018-09-02T21:27:32.628Z,93617.16
2018-09-02T21:30:00.779Z,93617.77
2018-09-02T21:32:28.956Z,93621.08
2018-09-02T21:34:57.169Z,93621.08
2018-09-02T21:37:25.276Z,93624.69
2018-09-02T21:39:53.396Z,93613.73
2018-09-02T21:42:21.628Z,93611.78
2018-09-02T21:44:49.721Z,93607.72
2018-09-02T21:47:17.998Z,93609.72
2018-09-02T21:49:46.530Z,93614.34
2018-09-02T21:52:15.035Z,93611.93
2018-09-02T21:54:43.529Z,93611.91
2018-09-02T21:57:11.590Z,93609.66
2018-09-02T21:59:39.833Z,93607.84
2018-09-02T22:02:08.161Z,93610.33
2018-09-02T22:04:36.491Z,93600.58
2018-09-02T22:07:05.048Z,93597.72
2018-09-02T22:09:33.273Z,93597.63
2018-09-02T22:12:01.624Z,93600.67
2018-09-02T22:14:29.841Z,93591.24
2018-09-02T22:16:57.972Z,93593.45
2018-09-02T22:19:26.403Z,93596.91
2018-09-02T22:21:54.647Z,93596.16
2018-09-02T22:24:22.915Z,93598.91
2018-09-02T22:26:51.053Z,93596.41
2018-09-02T22:29:19.444Z,93598.42
2018-09-02T22:31:47.853Z,93594.89
2018-09-02T22:34:15.960Z,93598.63
2018-09-02T22:36:44.270Z,93599.66
2018-09-02T22:39:12.482Z,93594.81
2018-09-02T22:41:40.773Z,93589.94
2018-09-02T22:44:09.079Z,93590.34
2018-09-02T22:46:37.226Z,93585.10
2018-09-02T22:49:05.319Z,93582.27
2018-09-02T22:51:33.409Z,93583.91
2018-09-02T22:54:01.451Z,93586.25
2018-09-02T22:56:30.058Z,93587.44
2018-09-02T22:58:58.242Z,93586.70
2018-09-02T23:01:26.351Z,93591.61
2018-09-02T23:03:54.387Z,93589.37
2018-09-02T23:06:22.410Z,93587.72
2018-09-02T23:08:50.459Z,93589.56
2018-09-02T23:11:18.606Z,93586.36
2018-09-02T23:13:46.597Z,93579.60
2018-09-02T23:16:14.760Z,93576.98
2018-09-02T23:18:42.836Z,93574.55
2018-09-02T23:21:10.870Z,93579.67
2018-09-02T23:23:39.146Z,93567.53
2018-09-02T23:26:07.329Z,93564.55
2018-09-02T23:28:35.469Z,93564.55
2018-09-02T23:31:03.666Z,93567.53
2018-09-02T23:33:31.791Z,93561.59
2018-09-02T23:35:59.814Z,93561.50
2018-09-02T23:38:27.831Z,93558.52
2018-09-02T23:40:55.927Z,93555.81
2018-09-02T23:43:24.103Z,93564.28
2018-09-02T23:45:52.276Z,93564.00
2018-09-02T23:48:20.393Z,93564.67
2018-09-02T23:50:48.527Z,93573.18
2018-09-02T23:53:16.782Z,93559.38
2018-09-02T23:55:44.839Z,93565.23
2018-09-02T23:58:12.883Z,93562.15
